sensor_id;sensor_type;location;lat;lon;timestamp;P1;durP1;ratioP1;P2;durP2;ratioP2
52102;SDS011;38101;53.126;6.878;2022-07-21T00:00:55;10.27;;;5.30;;
52102;SDS011;38101;53.126;6.878;2022-07-21T00:03:21;7.13;;;5.50;;
52102;SDS011;38101;53.126;6.878;2022-07-21T00:05:46;9.70;;;5.55;;
52102;SDS011;38101;53.126;6.878;2022-07-21T00:08:12;6.25;;;4.95;;
52102;SDS011;38101;53.126;6.878;2022-07-21T00:10:38;9.13;;;5.60;;
52102;SDS011;38101;53.126;6.878;2022-07-21T00:13:05;10.23;;;5.47;;
52102;SDS011;38101;53.126;6.878;2022-07-21T00:15:30;6.20;;;4.45;;
52102;SDS011;38101;53.126;6.878;2022-07-21T00:17:56;7.97;;;5.20;;
52102;SDS011;38101;53.126;6.878;2022-07-21T00:20:23;10.18;;;5.90;;
52102;SDS011;38101;53.126;6.878;2022-07-21T00:22:49;7.82;;;5.75;;
52102;SDS011;38101;53.126;6.878;2022-07-21T00:25:15;9.07;;;6.05;;
52102;SDS011;38101;53.126;6.878;2022-07-21T00:27:41;8.35;;;5.65;;
52102;SDS011;38101;53.126;6.878;2022-07-21T00:30:08;8.60;;;5.40;;
52102;SDS011;38101;53.126;6.878;2022-07-21T00:32:35;8.30;;;5.28;;
52102;SDS011;38101;53.126;6.878;2022-07-21T00:35:01;9.77;;;6.13;;
52102;SDS011;38101;53.126;6.878;2022-07-21T00:37:28;8.30;;;5.60;;
52102;SDS011;38101;53.126;6.878;2022-07-21T00:39:54;9.80;;;5.53;;
52102;SDS011;38101;53.126;6.878;2022-07-21T00:42:23;7.68;;;4.97;;
52102;SDS011;38101;53.126;6.878;2022-07-21T00:44:50;15.25;;;7.35;;
52102;SDS011;38101;53.126;6.878;2022-07-21T00:47:26;14.32;;;7.47;;
52102;SDS011;38101;53.126;6.878;2022-07-21T00:49:54;14.43;;;7.53;;
52102;SDS011;38101;53.126;6.878;2022-07-21T00:52:21;14.38;;;7.78;;
52102;SDS011;38101;53.126;6.878;2022-07-21T00:54:47;14.00;;;8.68;;
52102;SDS011;38101;53.126;6.878;2022-07-21T00:57:13;14.48;;;8.50;;
52102;SDS011;38101;53.126;6.878;2022-07-21T00:59:40;10.77;;;7.78;;
52102;SDS011;38101;53.126;6.878;2022-07-21T01:02:06;12.75;;;8.02;;
52102;SDS011;38101;53.126;6.878;2022-07-21T01:04:33;10.48;;;8.13;;
52102;SDS011;38101;53.126;6.878;2022-07-21T01:07:00;10.55;;;7.57;;
52102;SDS011;38101;53.126;6.878;2022-07-21T01:09:27;12.88;;;8.10;;
52102;SDS011;38101;53.126;6.878;2022-07-21T01:11:53;11.00;;;7.80;;
52102;SDS011;38101;53.126;6.878;2022-07-21T01:14:19;10.63;;;7.68;;
52102;SDS011;38101;53.126;6.878;2022-07-21T01:16:45;10.40;;;8.18;;
52102;SDS011;38101;53.126;6.878;2022-07-21T01:19:10;15.07;;;8.70;;
52102;SDS011;38101;53.126;6.878;2022-07-21T01:21:37;12.90;;;8.07;;
52102;SDS011;38101;53.126;6.878;2022-07-21T01:24:05;12.52;;;8.35;;
52102;SDS011;38101;53.126;6.878;2022-07-21T01:26:31;10.48;;;8.57;;
52102;SDS011;38101;53.126;6.878;2022-07-21T01:29:05;11.05;;;9.15;;
52102;SDS011;38101;53.126;6.878;2022-07-21T01:31:31;10.70;;;8.30;;
52102;SDS011;38101;53.126;6.878;2022-07-21T01:33:56;11.65;;;8.80;;
52102;SDS011;38101;53.126;6.878;2022-07-21T01:36:22;12.68;;;9.07;;
52102;SDS011;38101;53.126;6.878;2022-07-21T01:38:48;11.50;;;8.98;;
52102;SDS011;38101;53.126;6.878;2022-07-21T01:41:32;12.63;;;9.50;;
52102;SDS011;38101;53.126;6.878;2022-07-21T01:44:08;12.35;;;9.02;;
52102;SDS011;38101;53.126;6.878;2022-07-21T01:46:37;15.80;;;10.27;;
52102;SDS011;38101;53.126;6.878;2022-07-21T01:49:12;14.20;;;9.32;;
52102;SDS011;38101;53.126;6.878;2022-07-21T01:51:39;14.27;;;10.30;;
52102;SDS011;38101;53.126;6.878;2022-07-21T01:54:05;14.32;;;10.30;;
52102;SDS011;38101;53.126;6.878;2022-07-21T01:56:33;11.65;;;9.02;;
52102;SDS011;38101;53.126;6.878;2022-07-21T01:59:00;10.77;;;8.95;;
52102;SDS011;38101;53.126;6.878;2022-07-21T02:01:26;12.43;;;9.30;;
52102;SDS011;38101;53.126;6.878;2022-07-21T02:03:54;13.90;;;10.10;;
52102;SDS011;38101;53.126;6.878;2022-07-21T02:06:21;16.23;;;10.73;;
52102;SDS011;38101;53.126;6.878;2022-07-21T02:08:48;13.10;;;9.70;;
52102;SDS011;38101;53.126;6.878;2022-07-21T02:11:14;13.23;;;10.50;;
52102;SDS011;38101;53.126;6.878;2022-07-21T02:13:40;12.63;;;9.68;;
52102;SDS011;38101;53.126;6.878;2022-07-21T02:16:06;10.93;;;8.90;;
52102;SDS011;38101;53.126;6.878;2022-07-21T02:18:32;11.48;;;9.10;;
52102;SDS011;38101;53.126;6.878;2022-07-21T02:20:58;14.30;;;10.35;;
52102;SDS011;38101;53.126;6.878;2022-07-21T02:23:25;11.50;;;9.48;;
52102;SDS011;38101;53.126;6.878;2022-07-21T02:25:51;14.20;;;10.43;;
52102;SDS011;38101;53.126;6.878;2022-07-21T02:28:18;11.00;;;9.70;;
52102;SDS011;38101;53.126;6.878;2022-07-21T02:30:44;14.02;;;10.27;;
52102;SDS011;38101;53.126;6.878;2022-07-21T02:33:10;16.15;;;10.52;;
52102;SDS011;38101;53.126;6.878;2022-07-21T02:35:36;13.60;;;10.15;;
52102;SDS011;38101;53.126;6.878;2022-07-21T02:38:02;11.20;;;9.85;;
52102;SDS011;38101;53.126;6.878;2022-07-21T02:40:29;12.75;;;9.50;;
52102;SDS011;38101;53.126;6.878;2022-07-21T02:42:54;12.00;;;9.32;;
52102;SDS011;38101;53.126;6.878;2022-07-21T02:45:20;12.88;;;9.68;;
52102;SDS011;38101;53.126;6.878;2022-07-21T02:47:53;12.65;;;9.57;;
52102;SDS011;38101;53.126;6.878;2022-07-21T02:50:21;14.82;;;10.38;;
52102;SDS011;38101;53.126;6.878;2022-07-21T02:52:48;13.25;;;9.70;;
52102;SDS011;38101;53.126;6.878;2022-07-21T02:55:14;11.55;;;9.27;;
52102;SDS011;38101;53.126;6.878;2022-07-21T02:57:40;13.00;;;9.95;;
52102;SDS011;38101;53.126;6.878;2022-07-21T03:00:07;12.68;;;9.70;;
52102;SDS011;38101;53.126;6.878;2022-07-21T03:02:34;13.77;;;10.40;;
52102;SDS011;38101;53.126;6.878;2022-07-21T03:05:00;12.32;;;9.77;;
52102;SDS011;38101;53.126;6.878;2022-07-21T03:07:26;13.98;;;10.38;;
52102;SDS011;38101;53.126;6.878;2022-07-21T03:09:52;13.13;;;10.57;;
52102;SDS011;38101;53.126;6.878;2022-07-21T03:12:18;12.85;;;10.60;;
52102;SDS011;38101;53.126;6.878;2022-07-21T03:14:43;12.55;;;11.23;;
52102;SDS011;38101;53.126;6.878;2022-07-21T03:17:10;15.48;;;10.65;;
52102;SDS011;38101;53.126;6.878;2022-07-21T03:19:35;13.45;;;11.32;;
52102;SDS011;38101;53.126;6.878;2022-07-21T03:22:01;13.80;;;11.18;;
52102;SDS011;38101;53.126;6.878;2022-07-21T03:24:27;13.80;;;10.38;;
52102;SDS011;38101;53.126;6.878;2022-07-21T03:26:54;13.68;;;10.00;;
52102;SDS011;38101;53.126;6.878;2022-07-21T03:29:21;12.35;;;10.32;;
52102;SDS011;38101;53.126;6.878;2022-07-21T03:31:47;16.52;;;12.80;;
52102;SDS011;38101;53.126;6.878;2022-07-21T03:34:12;22.55;;;20.15;;
52102;SDS011;38101;53.126;6.878;2022-07-21T03:36:38;20.85;;;17.13;;
52102;SDS011;38101;53.126;6.878;2022-07-21T03:39:04;19.30;;;16.95;;
52102;SDS011;38101;53.126;6.878;2022-07-21T03:41:30;19.02;;;16.02;;
52102;SDS011;38101;53.126;6.878;2022-07-21T03:43:55;15.80;;;13.45;;
52102;SDS011;38101;53.126;6.878;2022-07-21T03:46:21;14.43;;;11.73;;
52102;SDS011;38101;53.126;6.878;2022-07-21T03:48:47;14.40;;;11.63;;
52102;SDS011;38101;53.126;6.878;2022-07-21T03:51:12;13.05;;;10.82;;
52102;SDS011;38101;53.126;6.878;2022-07-21T03:53:38;12.93;;;10.70;;
52102;SDS011;38101;53.126;6.878;2022-07-21T03:56:04;16.75;;;11.32;;
52102;SDS011;38101;53.126;6.878;2022-07-21T03:58:30;14.82;;;11.73;;
52102;SDS011;38101;53.126;6.878;2022-07-21T04:00:55;13.48;;;11.43;;
52102;SDS011;38101;53.126;6.878;2022-07-21T04:03:21;14.68;;;10.77;;
52102;SDS011;38101;53.126;6.878;2022-07-21T04:05:46;15.23;;;11.70;;
52102;SDS011;38101;53.126;6.878;2022-07-21T04:08:12;14.20;;;11.45;;
52102;SDS011;38101;53.126;6.878;2022-07-21T04:10:39;13.65;;;10.65;;
52102;SDS011;38101;53.126;6.878;2022-07-21T04:13:06;14.20;;;12.10;;
52102;SDS011;38101;53.126;6.878;2022-07-21T04:15:35;14.52;;;11.18;;
52102;SDS011;38101;53.126;6.878;2022-07-21T04:18:02;15.20;;;11.18;;
52102;SDS011;38101;53.126;6.878;2022-07-21T04:20:28;12.95;;;11.02;;
52102;SDS011;38101;53.126;6.878;2022-07-21T04:22:53;14.40;;;11.93;;
52102;SDS011;38101;53.126;6.878;2022-07-21T04:25:20;15.38;;;11.00;;
52102;SDS011;38101;53.126;6.878;2022-07-21T04:27:47;12.65;;;11.07;;
52102;SDS011;38101;53.126;6.878;2022-07-21T04:30:14;13.05;;;11.02;;
52102;SDS011;38101;53.126;6.878;2022-07-21T04:32:41;14.23;;;11.90;;
52102;SDS011;38101;53.126;6.878;2022-07-21T04:35:07;15.60;;;11.82;;
52102;SDS011;38101;53.126;6.878;2022-07-21T04:37:33;12.82;;;11.48;;
52102;SDS011;38101;53.126;6.878;2022-07-21T04:39:59;15.10;;;11.25;;
52102;SDS011;38101;53.126;6.878;2022-07-21T04:42:25;15.23;;;10.68;;
52102;SDS011;38101;53.126;6.878;2022-07-21T04:44:51;14.02;;;11.48;;
52102;SDS011;38101;53.126;6.878;2022-07-21T04:47:16;14.52;;;11.57;;
52102;SDS011;38101;53.126;6.878;2022-07-21T04:49:42;13.02;;;10.90;;
52102;SDS011;38101;53.126;6.878;2022-07-21T04:52:08;13.38;;;10.93;;
52102;SDS011;38101;53.126;6.878;2022-07-21T04:54:33;12.60;;;10.75;;
52102;SDS011;38101;53.126;6.878;2022-07-21T04:56:59;14.48;;;10.18;;
52102;SDS011;38101;53.126;6.878;2022-07-21T04:59:27;13.52;;;10.88;;
52102;SDS011;38101;53.126;6.878;2022-07-21T05:01:54;16.33;;;11.57;;
52102;SDS011;38101;53.126;6.878;2022-07-21T05:04:20;16.60;;;11.90;;
52102;SDS011;38101;53.126;6.878;2022-07-21T05:06:46;14.65;;;12.20;;
52102;SDS011;38101;53.126;6.878;2022-07-21T05:09:12;15.30;;;12.57;;
52102;SDS011;38101;53.126;6.878;2022-07-21T05:11:38;16.98;;;13.43;;
52102;SDS011;38101;53.126;6.878;2022-07-21T05:14:03;15.18;;;12.73;;
52102;SDS011;38101;53.126;6.878;2022-07-21T05:16:29;16.58;;;14.25;;
52102;SDS011;38101;53.126;6.878;2022-07-21T05:18:55;15.52;;;13.50;;
52102;SDS011;38101;53.126;6.878;2022-07-21T05:21:21;20.00;;;14.40;;
52102;SDS011;38101;53.126;6.878;2022-07-21T05:23:46;15.38;;;13.75;;
52102;SDS011;38101;53.126;6.878;2022-07-21T05:26:12;16.23;;;13.52;;
52102;SDS011;38101;53.126;6.878;2022-07-21T05:28:38;16.90;;;13.73;;
52102;SDS011;38101;53.126;6.878;2022-07-21T05:31:04;18.20;;;14.32;;
52102;SDS011;38101;53.126;6.878;2022-07-21T05:33:30;17.83;;;14.27;;
52102;SDS011;38101;53.126;6.878;2022-07-21T05:35:55;16.80;;;15.00;;
52102;SDS011;38101;53.126;6.878;2022-07-21T05:38:21;19.45;;;15.65;;
52102;SDS011;38101;53.126;6.878;2022-07-21T05:40:47;19.52;;;16.02;;
52102;SDS011;38101;53.126;6.878;2022-07-21T05:43:13;20.13;;;16.95;;
52102;SDS011;38101;53.126;6.878;2022-07-21T05:45:38;17.80;;;15.90;;
52102;SDS011;38101;53.126;6.878;2022-07-21T05:48:04;18.27;;;15.93;;
52102;SDS011;38101;53.126;6.878;2022-07-21T05:50:30;18.88;;;16.38;;
52102;SDS011;38101;53.126;6.878;2022-07-21T05:52:56;20.10;;;16.67;;
52102;SDS011;38101;53.126;6.878;2022-07-21T05:55:21;19.52;;;17.27;;
52102;SDS011;38101;53.126;6.878;2022-07-21T05:57:47;19.80;;;17.67;;
52102;SDS011;38101;53.126;6.878;2022-07-21T06:00:13;21.55;;;18.25;;
52102;SDS011;38101;53.126;6.878;2022-07-21T06:02:39;20.02;;;17.67;;
52102;SDS011;38101;53.126;6.878;2022-07-21T06:05:05;20.75;;;18.38;;
52102;SDS011;38101;53.126;6.878;2022-07-21T06:07:33;21.67;;;18.35;;
52102;SDS011;38101;53.126;6.878;2022-07-21T06:09:59;19.55;;;17.48;;
52102;SDS011;38101;53.126;6.878;2022-07-21T06:12:26;19.60;;;17.35;;
52102;SDS011;38101;53.126;6.878;2022-07-21T06:14:52;19.75;;;17.50;;
52102;SDS011;38101;53.126;6.878;2022-07-21T06:17:17;18.45;;;16.42;;
52102;SDS011;38101;53.126;6.878;2022-07-21T06:19:43;19.60;;;17.50;;
52102;SDS011;38101;53.126;6.878;2022-07-21T06:22:09;20.58;;;18.10;;
52102;SDS011;38101;53.126;6.878;2022-07-21T06:24:34;20.88;;;18.50;;
52102;SDS011;38101;53.126;6.878;2022-07-21T06:27:00;18.98;;;16.60;;
52102;SDS011;38101;53.126;6.878;2022-07-21T06:29:26;21.40;;;17.58;;
52102;SDS011;38101;53.126;6.878;2022-07-21T06:31:52;20.52;;;18.15;;
52102;SDS011;38101;53.126;6.878;2022-07-21T06:34:17;21.42;;;18.33;;
52102;SDS011;38101;53.126;6.878;2022-07-21T06:36:43;21.75;;;19.27;;
52102;SDS011;38101;53.126;6.878;2022-07-21T06:39:09;19.90;;;17.48;;
52102;SDS011;38101;53.126;6.878;2022-07-21T06:41:37;21.02;;;17.77;;
52102;SDS011;38101;53.126;6.878;2022-07-21T06:44:04;21.25;;;18.85;;
52102;SDS011;38101;53.126;6.878;2022-07-21T06:46:31;22.63;;;19.75;;
52102;SDS011;38101;53.126;6.878;2022-07-21T06:48:57;20.88;;;18.67;;
52102;SDS011;38101;53.126;6.878;2022-07-21T06:51:23;24.05;;;21.33;;
52102;SDS011;38101;53.126;6.878;2022-07-21T06:53:49;22.75;;;20.35;;
52102;SDS011;38101;53.126;6.878;2022-07-21T06:56:16;22.17;;;19.80;;
52102;SDS011;38101;53.126;6.878;2022-07-21T06:58:42;22.80;;;20.35;;
52102;SDS011;38101;53.126;6.878;2022-07-21T07:01:08;25.85;;;21.58;;
52102;SDS011;38101;53.126;6.878;2022-07-21T07:03:34;24.13;;;21.55;;
52102;SDS011;38101;53.126;6.878;2022-07-21T07:06:00;25.70;;;21.70;;
52102;SDS011;38101;53.126;6.878;2022-07-21T07:08:26;25.38;;;20.70;;
52102;SDS011;38101;53.126;6.878;2022-07-21T07:10:51;24.90;;;22.20;;
52102;SDS011;38101;53.126;6.878;2022-07-21T07:13:17;23.63;;;21.05;;
52102;SDS011;38101;53.126;6.878;2022-07-21T07:15:43;22.33;;;19.92;;
52102;SDS011;38101;53.126;6.878;2022-07-21T07:18:09;25.20;;;22.42;;
52102;SDS011;38101;53.126;6.878;2022-07-21T07:20:35;23.02;;;20.63;;
52102;SDS011;38101;53.126;6.878;2022-07-21T07:23:01;23.50;;;21.08;;
52102;SDS011;38101;53.126;6.878;2022-07-21T07:25:27;23.15;;;20.50;;
52102;SDS011;38101;53.126;6.878;2022-07-21T07:27:53;23.83;;;21.25;;
52102;SDS011;38101;53.126;6.878;2022-07-21T07:30:21;23.38;;;20.25;;
52102;SDS011;38101;53.126;6.878;2022-07-21T07:32:47;23.92;;;20.80;;
52102;SDS011;38101;53.126;6.878;2022-07-21T07:35:13;23.00;;;20.55;;
52102;SDS011;38101;53.126;6.878;2022-07-21T07:37:40;22.40;;;20.02;;
52102;SDS011;38101;53.126;6.878;2022-07-21T07:40:09;23.45;;;20.50;;
52102;SDS011;38101;53.126;6.878;2022-07-21T07:42:37;22.38;;;19.42;;
52102;SDS011;38101;53.126;6.878;2022-07-21T07:45:04;21.48;;;19.20;;
52102;SDS011;38101;53.126;6.878;2022-07-21T07:47:31;21.95;;;19.65;;
52102;SDS011;38101;53.126;6.878;2022-07-21T07:49:57;20.73;;;18.52;;
52102;SDS011;38101;53.126;6.878;2022-07-21T07:52:23;21.13;;;18.85;;
52102;SDS011;38101;53.126;6.878;2022-07-21T07:54:49;21.48;;;18.27;;
52102;SDS011;38101;53.126;6.878;2022-07-21T07:57:14;19.85;;;17.70;;
52102;SDS011;38101;53.126;6.878;2022-07-21T07:59:40;21.77;;;19.33;;
52102;SDS011;38101;53.126;6.878;2022-07-21T08:02:06;20.17;;;18.08;;
52102;SDS011;38101;53.126;6.878;2022-07-21T08:04:31;20.35;;;17.85;;
52102;SDS011;38101;53.126;6.878;2022-07-21T08:06:57;21.85;;;19.45;;
52102;SDS011;38101;53.126;6.878;2022-07-21T08:09:23;20.45;;;18.02;;
52102;SDS011;38101;53.126;6.878;2022-07-21T08:11:49;20.80;;;18.65;;
52102;SDS011;38101;53.126;6.878;2022-07-21T08:14:15;21.85;;;19.65;;
52102;SDS011;38101;53.126;6.878;2022-07-21T08:16:42;22.10;;;19.80;;
52102;SDS011;38101;53.126;6.878;2022-07-21T08:19:08;21.45;;;19.02;;
52102;SDS011;38101;53.126;6.878;2022-07-21T08:21:33;23.92;;;20.20;;
52102;SDS011;38101;53.126;6.878;2022-07-21T08:23:59;22.35;;;20.05;;
52102;SDS011;38101;53.126;6.878;2022-07-21T08:26:26;23.95;;;21.17;;
52102;SDS011;38101;53.126;6.878;2022-07-21T08:28:52;23.35;;;20.85;;
52102;SDS011;38101;53.126;6.878;2022-07-21T08:31:19;23.90;;;21.38;;
52102;SDS011;38101;53.126;6.878;2022-07-21T08:33:45;21.63;;;19.15;;
52102;SDS011;38101;53.126;6.878;2022-07-21T08:36:11;21.65;;;19.30;;
52102;SDS011;38101;53.126;6.878;2022-07-21T08:38:37;22.58;;;18.80;;
52102;SDS011;38101;53.126;6.878;2022-07-21T08:41:03;21.13;;;19.02;;
52102;SDS011;38101;53.126;6.878;2022-07-21T08:43:29;23.85;;;19.67;;
52102;SDS011;38101;53.126;6.878;2022-07-21T08:45:55;22.10;;;19.85;;
52102;SDS011;38101;53.126;6.878;2022-07-21T08:48:25;21.35;;;19.05;;
52102;SDS011;38101;53.126;6.878;2022-07-21T08:50:52;19.90;;;17.80;;
52102;SDS011;38101;53.126;6.878;2022-07-21T08:53:18;19.10;;;17.05;;
52102;SDS011;38101;53.126;6.878;2022-07-21T08:55:44;20.30;;;18.20;;
52102;SDS011;38101;53.126;6.878;2022-07-21T08:58:10;21.35;;;19.25;;
52102;SDS011;38101;53.126;6.878;2022-07-21T09:00:38;18.98;;;16.73;;
52102;SDS011;38101;53.126;6.878;2022-07-21T09:03:10;19.48;;;17.48;;
52102;SDS011;38101;53.126;6.878;2022-07-21T09:05:38;19.55;;;17.35;;
52102;SDS011;38101;53.126;6.878;2022-07-21T09:08:05;20.42;;;17.55;;
52102;SDS011;38101;53.126;6.878;2022-07-21T09:10:31;18.63;;;16.65;;
52102;SDS011;38101;53.126;6.878;2022-07-21T09:13:01;18.10;;;16.20;;
52102;SDS011;38101;53.126;6.878;2022-07-21T09:15:29;18.38;;;16.45;;
52102;SDS011;38101;53.126;6.878;2022-07-21T09:18:06;18.30;;;16.17;;
52102;SDS011;38101;53.126;6.878;2022-07-21T09:20:39;20.67;;;16.95;;
52102;SDS011;38101;53.126;6.878;2022-07-21T09:23:14;16.98;;;15.18;;
52102;SDS011;38101;53.126;6.878;2022-07-21T09:28:12;17.35;;;14.85;;
52102;SDS011;38101;53.126;6.878;2022-07-21T09:36:04;17.13;;;15.13;;
52102;SDS011;38101;53.126;6.878;2022-07-21T09:38:37;17.23;;;14.90;;
52102;SDS011;38101;53.126;6.878;2022-07-21T09:41:16;15.57;;;13.63;;
52102;SDS011;38101;53.126;6.878;2022-07-21T09:43:48;15.38;;;13.77;;
52102;SDS011;38101;53.126;6.878;2022-07-21T09:46:18;15.50;;;13.80;;
52102;SDS011;38101;53.126;6.878;2022-07-21T09:48:58;14.32;;;12.93;;
52102;SDS011;38101;53.126;6.878;2022-07-21T09:51:31;14.18;;;12.73;;
52102;SDS011;38101;53.126;6.878;2022-07-21T09:54:03;14.38;;;12.88;;
52102;SDS011;38101;53.126;6.878;2022-07-21T09:56:31;16.00;;;14.43;;
52102;SDS011;38101;53.126;6.878;2022-07-21T09:59:01;15.52;;;13.93;;
52102;SDS011;38101;53.126;6.878;2022-07-21T10:01:29;15.68;;;13.70;;
52102;SDS011;38101;53.126;6.878;2022-07-21T10:03:55;15.15;;;13.65;;
52102;SDS011;38101;53.126;6.878;2022-07-21T10:06:23;15.90;;;14.20;;
52102;SDS011;38101;53.126;6.878;2022-07-21T10:08:54;16.40;;;14.80;;
52102;SDS011;38101;53.126;6.878;2022-07-21T10:11:21;15.95;;;14.35;;
52102;SDS011;38101;53.126;6.878;2022-07-21T10:13:47;16.60;;;14.90;;
52102;SDS011;38101;53.126;6.878;2022-07-21T10:16:13;16.35;;;14.65;;
52102;SDS011;38101;53.126;6.878;2022-07-21T10:24:16;17.65;;;15.50;;
52102;SDS011;38101;53.126;6.878;2022-07-21T10:27:02;16.80;;;14.90;;
52102;SDS011;38101;53.126;6.878;2022-07-21T10:29:48;16.70;;;14.38;;
52102;SDS011;38101;53.126;6.878;2022-07-21T10:32:14;16.38;;;14.43;;
52102;SDS011;38101;53.126;6.878;2022-07-21T10:34:41;16.48;;;14.77;;
52102;SDS011;38101;53.126;6.878;2022-07-21T10:37:11;18.27;;;15.95;;
52102;SDS011;38101;53.126;6.878;2022-07-21T10:40:05;17.17;;;15.48;;
52102;SDS011;38101;53.126;6.878;2022-07-21T10:45:31;16.75;;;15.05;;
52102;SDS011;38101;53.126;6.878;2022-07-21T10:53:00;21.33;;;16.67;;
52102;SDS011;38101;53.126;6.878;2022-07-21T10:55:36;18.02;;;16.13;;
52102;SDS011;38101;53.126;6.878;2022-07-21T10:58:09;18.98;;;16.92;;
52102;SDS011;38101;53.126;6.878;2022-07-21T11:03:18;22.42;;;20.00;;
52102;SDS011;38101;53.126;6.878;2022-07-21T11:11:21;27.75;;;22.02;;
52102;SDS011;38101;53.126;6.878;2022-07-21T11:14:00;25.42;;;22.50;;
52102;SDS011;38101;53.126;6.878;2022-07-21T11:19:05;28.15;;;22.52;;
52102;SDS011;38101;53.126;6.878;2022-07-21T11:24:21;27.20;;;23.90;;
52102;SDS011;38101;53.126;6.878;2022-07-21T11:27:23;27.05;;;24.08;;
52102;SDS011;38101;53.126;6.878;2022-07-21T11:29:43;26.00;;;23.07;;
52102;SDS011;38101;53.126;6.878;2022-07-21T11:32:12;34.22;;;24.80;;
52102;SDS011;38101;53.126;6.878;2022-07-21T11:34:40;31.52;;;26.10;;
52102;SDS011;38101;53.126;6.878;2022-07-21T11:37:05;31.83;;;26.42;;
52102;SDS011;38101;53.126;6.878;2022-07-21T11:39:32;31.88;;;26.13;;
52102;SDS011;38101;53.126;6.878;2022-07-21T11:42:09;33.67;;;27.33;;
52102;SDS011;38101;53.126;6.878;2022-07-21T11:44:38;32.25;;;25.63;;
52102;SDS011;38101;53.126;6.878;2022-07-21T11:47:05;33.55;;;26.88;;
52102;SDS011;38101;53.126;6.878;2022-07-21T11:49:32;33.85;;;26.63;;
52102;SDS011;38101;53.126;6.878;2022-07-21T11:52:01;34.45;;;27.58;;
52102;SDS011;38101;53.126;6.878;2022-07-21T11:56:57;32.92;;;26.27;;
52102;SDS011;38101;53.126;6.878;2022-07-21T11:59:24;36.92;;;28.30;;
52102;SDS011;38101;53.126;6.878;2022-07-21T12:01:54;42.10;;;31.15;;
52102;SDS011;38101;53.126;6.878;2022-07-21T12:04:28;32.20;;;25.33;;
52102;SDS011;38101;53.126;6.878;2022-07-21T12:07:03;34.33;;;26.73;;
52102;SDS011;38101;53.126;6.878;2022-07-21T12:17:41;31.40;;;25.02;;
52102;SDS011;38101;53.126;6.878;2022-07-21T12:20:10;36.45;;;28.58;;
52102;SDS011;38101;53.126;6.878;2022-07-21T12:22:40;34.15;;;27.55;;
52102;SDS011;38101;53.126;6.878;2022-07-21T12:25:09;30.50;;;24.80;;
52102;SDS011;38101;53.126;6.878;2022-07-21T12:27:37;29.60;;;25.25;;
52102;SDS011;38101;53.126;6.878;2022-07-21T12:30:05;32.45;;;26.70;;
52102;SDS011;38101;53.126;6.878;2022-07-21T12:35:23;27.83;;;23.05;;
52102;SDS011;38101;53.126;6.878;2022-07-21T12:37:54;29.73;;;24.23;;
52102;SDS011;38101;53.126;6.878;2022-07-21T12:40:24;29.70;;;24.20;;
52102;SDS011;38101;53.126;6.878;2022-07-21T12:42:51;27.23;;;22.83;;
52102;SDS011;38101;53.126;6.878;2022-07-21T12:45:27;29.00;;;23.98;;
52102;SDS011;38101;53.126;6.878;2022-07-21T12:48:09;26.92;;;23.30;;
52102;SDS011;38101;53.126;6.878;2022-07-21T12:50:36;27.73;;;22.85;;
52102;SDS011;38101;53.126;6.878;2022-07-21T12:53:05;24.08;;;20.50;;
52102;SDS011;38101;53.126;6.878;2022-07-21T12:55:32;27.75;;;20.88;;
52102;SDS011;38101;53.126;6.878;2022-07-21T12:57:58;25.27;;;20.90;;
52102;SDS011;38101;53.126;6.878;2022-07-21T13:00:24;26.48;;;22.08;;
52102;SDS011;38101;53.126;6.878;2022-07-21T13:02:51;25.73;;;21.05;;
52102;SDS011;38101;53.126;6.878;2022-07-21T13:05:18;24.85;;;20.95;;
52102;SDS011;38101;53.126;6.878;2022-07-21T13:07:44;24.60;;;21.23;;
52102;SDS011;38101;53.126;6.878;2022-07-21T13:10:10;22.38;;;19.33;;
52102;SDS011;38101;53.126;6.878;2022-07-21T13:12:36;23.27;;;20.23;;
52102;SDS011;38101;53.126;6.878;2022-07-21T13:15:02;23.73;;;19.92;;
52102;SDS011;38101;53.126;6.878;2022-07-21T13:17:29;24.73;;;20.05;;
52102;SDS011;38101;53.126;6.878;2022-07-21T13:19:56;31.65;;;21.48;;
52102;SDS011;38101;53.126;6.878;2022-07-21T13:22:21;24.38;;;18.60;;
52102;SDS011;38101;53.126;6.878;2022-07-21T13:24:47;24.20;;;20.27;;
52102;SDS011;38101;53.126;6.878;2022-07-21T13:27:13;20.80;;;18.60;;
52102;SDS011;38101;53.126;6.878;2022-07-21T13:29:38;22.50;;;18.90;;
52102;SDS011;38101;53.126;6.878;2022-07-21T13:32:05;23.65;;;18.42;;
52102;SDS011;38101;53.126;6.878;2022-07-21T13:34:31;21.73;;;18.27;;
52102;SDS011;38101;53.126;6.878;2022-07-21T13:36:57;22.48;;;19.67;;
52102;SDS011;38101;53.126;6.878;2022-07-21T13:39:23;21.77;;;19.40;;
52102;SDS011;38101;53.126;6.878;2022-07-21T13:41:54;26.30;;;21.55;;
52102;SDS011;38101;53.126;6.878;2022-07-21T13:44:20;29.00;;;22.85;;
52102;SDS011;38101;53.126;6.878;2022-07-21T13:46:47;24.83;;;20.98;;
52102;SDS011;38101;53.126;6.878;2022-07-21T13:49:13;23.58;;;20.73;;
52102;SDS011;38101;53.126;6.878;2022-07-21T13:51:38;25.90;;;20.38;;
52102;SDS011;38101;53.126;6.878;2022-07-21T13:54:04;22.73;;;19.73;;
52102;SDS011;38101;53.126;6.878;2022-07-21T13:56:30;24.42;;;21.02;;
52102;SDS011;38101;53.126;6.878;2022-07-21T13:58:55;23.50;;;20.27;;
52102;SDS011;38101;53.126;6.878;2022-07-21T14:01:21;23.10;;;20.52;;
52102;SDS011;38101;53.126;6.878;2022-07-21T14:03:48;20.50;;;18.33;;
52102;SDS011;38101;53.126;6.878;2022-07-21T14:06:14;20.30;;;17.23;;
52102;SDS011;38101;53.126;6.878;2022-07-21T14:08:41;17.85;;;15.95;;
52102;SDS011;38101;53.126;6.878;2022-07-21T14:11:07;18.35;;;15.10;;
52102;SDS011;38101;53.126;6.878;2022-07-21T14:13:33;18.30;;;13.85;;
52102;SDS011;38101;53.126;6.878;2022-07-21T14:16:00;16.35;;;13.75;;
52102;SDS011;38101;53.126;6.878;2022-07-21T14:18:27;15.95;;;12.43;;
52102;SDS011;38101;53.126;6.878;2022-07-21T14:20:53;16.05;;;12.50;;
52102;SDS011;38101;53.126;6.878;2022-07-21T14:23:21;17.20;;;13.07;;
52102;SDS011;38101;53.126;6.878;2022-07-21T14:25:48;14.48;;;12.05;;
52102;SDS011;38101;53.126;6.878;2022-07-21T14:28:15;16.13;;;13.68;;
52102;SDS011;38101;53.126;6.878;2022-07-21T14:30:41;15.80;;;13.27;;
52102;SDS011;38101;53.126;6.878;2022-07-21T14:33:06;13.20;;;11.55;;
52102;SDS011;38101;53.126;6.878;2022-07-21T14:35:32;8.45;;;7.03;;
52102;SDS011;38101;53.126;6.878;2022-07-21T14:37:58;9.48;;;7.70;;
52102;SDS011;38101;53.126;6.878;2022-07-21T14:40:24;8.48;;;7.20;;
52102;SDS011;38101;53.126;6.878;2022-07-21T14:42:50;8.93;;;7.43;;
52102;SDS011;38101;53.126;6.878;2022-07-21T14:45:17;8.85;;;7.60;;
52102;SDS011;38101;53.126;6.878;2022-07-21T14:47:43;6.88;;;6.10;;
52102;SDS011;38101;53.126;6.878;2022-07-21T14:50:09;6.85;;;5.28;;
52102;SDS011;38101;53.126;6.878;2022-07-21T14:52:35;5.68;;;4.22;;
52102;SDS011;38101;53.126;6.878;2022-07-21T14:55:00;6.72;;;4.43;;
52102;SDS011;38101;53.126;6.878;2022-07-21T14:57:26;6.60;;;5.53;;
52102;SDS011;38101;53.126;6.878;2022-07-21T14:59:52;7.18;;;6.38;;
52102;SDS011;38101;53.126;6.878;2022-07-21T15:02:18;9.15;;;7.22;;
52102;SDS011;38101;53.126;6.878;2022-07-21T15:04:44;8.55;;;7.30;;
52102;SDS011;38101;53.126;6.878;2022-07-21T15:07:09;7.88;;;6.72;;
52102;SDS011;38101;53.126;6.878;2022-07-21T15:09:35;8.95;;;7.55;;
52102;SDS011;38101;53.126;6.878;2022-07-21T15:12:01;8.40;;;7.40;;
52102;SDS011;38101;53.126;6.878;2022-07-21T15:14:27;8.50;;;7.55;;